Time;durP1;ratioP1;P1;durP2;ratioP2;P2;SDS_P1;SDS_P2;PMS_P1;PMS_P2;Temp;Humidity;BMP_temperature;BMP_pressure;BME280_temperature;BME280_humidity;BME280_pressure;Samples;Min_cycle;Max_cycle;Signal;HPM_P1;HPM_P2
2022/09/19 00:01:29;;;;;;;0.00;0.00;;;16.80;78.80;;;;;;4141817;28;20105;-60
2022/09/19 00:04:15;;;;;;;0.13;0.13;;;16.80;78.90;;;;;;4143020;28;20099;-61
2022/09/19 00:06:57;;;;;;;0.00;0.00;;;16.80;78.80;;;;;;4142007;28;20061;-60
2022/09/19 00:09:38;;;;;;;0.00;0.00;;;16.80;78.90;;;;;;4147498;28;20060;-61
2022/09/19 00:12:19;;;;;;;0.00;0.00;;;16.80;78.90;;;;;;4175731;28;20055;-60
2022/09/19 00:14:59;;;;;;;0.00;0.00;;;16.80;78.90;;;;;;4174833;28;20090;-60
2022/09/19 00:17:42;;;;;;;0.10;0.10;;;16.80;79.00;;;;;;4174327;28;20114;-61
2022/09/19 00:20:23;;;;;;;0.00;0.00;;;16.80;79.00;;;;;;4175588;28;20055;-60
2022/09/19 00:26:04;;;;;;;0.00;0.00;;;16.80;79.00;;;;;;4174665;28;20060;-63
2022/09/19 00:28:45;;;;;;;0.00;0.00;;;16.80;79.10;;;;;;4174490;28;20060;-63
2022/09/19 00:31:27;;;;;;;0.00;0.00;;;16.80;79.30;;;;;;4175141;28;20055;-63
2022/09/19 00:34:09;;;;;;;;;;;16.80;79.40;;;;;;4175550;28;20052;-63
2022/09/19 00:36:51;;;;;;;0.00;0.00;;;16.80;79.20;;;;;;4174794;28;19927;-63
2022/09/19 00:39:31;;;;;;;0.00;0.00;;;16.80;79.20;;;;;;4174723;28;20047;-63
2022/09/19 00:42:17;;;;;;;0.00;0.00;;;16.80;79.20;;;;;;4173889;28;20055;-63
2022/09/19 00:45:01;;;;;;;0.52;0.52;;;16.80;79.30;;;;;;4173916;28;20052;-63
2022/09/19 00:47:46;;;;;;;0.00;0.00;;;16.80;79.40;;;;;;4168558;28;20451;-62
2022/09/19 00:50:30;;;;;;;0.00;0.00;;;16.80;79.40;;;;;;4159069;28;20508;-63
2022/09/19 00:53:16;;;;;;;0.20;0.20;;;16.80;79.50;;;;;;4159053;28;20052;-63
2022/09/19 00:55:56;;;;;;;0.00;0.00;;;16.80;79.60;;;;;;4157811;28;20125;-63
2022/09/19 00:58:43;;;;;;;0.00;0.00;;;16.80;79.60;;;;;;4170399;28;20059;-63
2022/09/19 01:01:24;;;;;;;0.00;0.00;;;16.80;79.60;;;;;;4175515;28;20063;-63
2022/09/19 01:04:15;;;;;;;0.00;0.00;;;16.80;79.60;;;;;;4176851;28;20066;-63
2022/09/19 01:07:13;;;;;;;0.00;0.00;;;16.80;79.60;;;;;;4173910;28;20051;-63
2022/09/19 01:09:59;;;;;;;0.00;0.00;;;16.80;79.60;;;;;;4161608;28;20071;-63
2022/09/19 01:12:51;;;;;;;0.00;0.00;;;16.80;79.60;;;;;;4184104;28;20052;-61
2022/09/19 01:15:39;;;;;;;0.00;0.00;;;16.80;79.90;;;;;;4161603;28;20163;-62
2022/09/19 01:18:26;;;;;;;0.90;0.32;;;16.80;79.90;;;;;;4160657;28;20546;-60
2022/09/19 01:24:49;;;;;;;0.00;0.00;;;16.80;80.20;;;;;;4168825;28;20105;-61
2022/09/19 01:28:10;;;;;;;0.00;0.00;;;16.80;80.10;;;;;;4176099;28;20060;-61
2022/09/19 01:31:19;;;;;;;0.00;0.00;;;16.80;80.30;;;;;;4159830;28;20052;-61
2022/09/19 01:34:05;;;;;;;0.00;0.00;;;16.80;80.30;;;;;;4159660;28;20164;-60
2022/09/19 01:36:52;;;;;;;0.00;0.00;;;16.80;80.30;;;;;;4156856;28;20111;-61
2022/09/19 01:39:36;;;;;;;0.65;0.65;;;16.80;81.30;;;;;;4152201;28;20052;-61
2022/09/19 01:42:22;;;;;;;0.00;0.00;;;16.80;80.60;;;;;;4175001;28;20495;-61
2022/09/19 01:45:11;;;;;;;0.68;0.68;;;16.80;80.70;;;;;;4177081;28;20422;-60
2022/09/19 01:48:00;;;;;;;0.00;0.00;;;16.80;80.80;;;;;;4176451;28;20056;-60
2022/09/19 01:51:10;;;;;;;0.00;0.00;;;16.80;80.90;;;;;;4159328;28;20744;-60
2022/09/19 01:54:10;;;;;;;0.00;0.00;;;16.80;80.90;;;;;;4159815;28;20056;-60
2022/09/19 01:57:20;;;;;;;0.00;0.00;;;16.80;80.90;;;;;;4161056;28;20529;-60
2022/09/19 02:00:13;;;;;;;0.00;0.00;;;16.80;80.90;;;;;;4159815;28;20555;-60
2022/09/19 02:03:08;;;;;;;0.45;0.45;;;16.80;81.20;;;;;;4161094;28;20060;-60
2022/09/19 02:06:01;;;;;;;0.00;0.00;;;16.80;81.00;;;;;;4159805;28;20045;-60
2022/09/19 02:08:51;;;;;;;0.00;0.00;;;16.80;80.90;;;;;;4148890;28;20183;-60
2022/09/19 02:11:47;;;;;;;0.00;0.00;;;16.80;81.00;;;;;;4175756;28;20187;-60
2022/09/19 02:14:32;;;;;;;0.00;0.00;;;16.80;81.20;;;;;;4177282;28;20079;-61
2022/09/19 02:17:21;;;;;;;0.00;0.00;;;16.70;81.00;;;;;;4176163;28;20187;-61
2022/09/19 02:20:07;;;;;;;0.00;0.00;;;16.70;81.00;;;;;;4176295;28;20056;-60
2022/09/19 02:22:51;;;;;;;0.03;0.03;;;16.70;81.20;;;;;;4171415;28;20059;-61
2022/09/19 02:25:35;;;;;;;0.00;0.00;;;16.70;81.20;;;;;;4161248;28;20167;-61
2022/09/19 02:28:21;;;;;;;0.00;0.00;;;16.70;81.10;;;;;;4159688;28;20059;-61
2022/09/19 02:31:05;;;;;;;0.00;0.00;;;16.70;81.00;;;;;;4166921;28;20494;-61
2022/09/19 02:33:52;;;;;;;0.00;0.00;;;16.70;81.10;;;;;;4175868;28;20066;-61
2022/09/19 02:36:39;;;;;;;0.80;0.80;;;16.80;81.40;;;;;;4176067;28;20048;-61
2022/09/19 02:39:25;;;;;;;0.00;0.00;;;16.70;81.30;;;;;;4175804;28;20565;-61
2022/09/19 02:42:22;;;;;;;0.00;0.00;;;16.70;81.30;;;;;;4158977;28;20057;-61
2022/09/19 02:45:10;;;;;;;0.00;0.00;;;16.70;81.20;;;;;;4159230;28;20056;-61
2022/09/19 02:48:03;;;;;;;0.00;0.00;;;16.70;81.30;;;;;;4159105;28;20068;-61
2022/09/19 02:50:58;;;;;;;0.00;0.00;;;16.70;81.30;;;;;;4163950;28;20175;-61
2022/09/19 02:53:44;;;;;;;0.00;0.00;;;16.70;81.30;;;;;;4164082;28;20056;-61
2022/09/19 02:56:34;;;;;;;0.10;0.10;;;16.70;81.30;;;;;;4175531;28;20048;-61
2022/09/19 02:59:20;;;;;;;0.00;0.00;;;16.70;81.30;;;;;;4175783;28;20195;-61
2022/09/19 03:02:12;;;;;;;0.00;0.00;;;16.70;81.30;;;;;;4175913;28;20052;-62
2022/09/19 03:04:57;;;;;;;0.00;0.00;;;16.70;81.30;;;;;;4175244;28;20056;-61
2022/09/19 03:07:48;;;;;;;0.00;0.00;;;16.70;81.30;;;;;;4175451;28;20059;-61
2022/09/19 03:10:34;;;;;;;0.00;0.00;;;16.70;81.30;;;;;;4168274;28;20111;-61
2022/09/19 03:13:45;;;;;;;0.00;0.00;;;16.70;81.30;;;;;;4182012;28;20060;-61
2022/09/19 03:16:34;;;;;;;0.00;0.00;;;16.70;81.30;;;;;;4158716;28;20064;-61
2022/09/19 03:19:17;;;;;;;0.00;0.00;;;16.70;81.30;;;;;;4157777;28;20063;-61
2022/09/19 03:21:58;;;;;;;0.00;0.00;;;16.70;81.30;;;;;;4153133;28;20065;-60
2022/09/19 03:24:45;;;;;;;0.00;0.00;;;16.70;81.30;;;;;;4158875;28;20051;-60
2022/09/19 03:27:26;;;;;;;0.00;0.00;;;16.70;81.30;;;;;;4159703;28;20117;-60
2022/09/19 03:30:09;;;;;;;0.57;0.57;;;16.70;81.30;;;;;;4159579;28;20064;-60
2022/09/19 03:32:54;;;;;;;0.00;0.00;;;16.70;82.20;;;;;;4158818;28;20122;-61
2022/09/19 03:35:36;;;;;;;;;;;16.70;81.30;;;;;;4158985;28;20055;-60
2022/09/19 03:38:17;;;;;;;0.00;0.00;;;16.70;81.30;;;;;;4143337;28;19928;-61
2022/09/19 03:40:59;;;;;;;0.00;0.00;;;16.70;81.40;;;;;;4157625;28;20056;-61
2022/09/19 03:43:42;;;;;;;0.00;0.00;;;16.70;81.40;;;;;;4159819;28;20472;-61
2022/09/19 03:46:23;;;;;;;0.00;0.00;;;16.70;81.50;;;;;;4158603;28;20495;-61
2022/09/19 03:49:05;;;;;;;0.00;0.00;;;16.70;81.50;;;;;;4157802;28;20048;-61
2022/09/19 03:51:46;;;;;;;0.00;0.00;;;16.70;81.60;;;;;;4132717;28;20061;-61
2022/09/19 03:54:29;;;;;;;0.00;0.00;;;16.70;81.50;;;;;;4181759;28;20060;-61
2022/09/19 03:57:12;;;;;;;0.00;0.00;;;16.70;81.50;;;;;;4157382;28;20180;-61
2022/09/19 03:59:53;;;;;;;0.00;0.00;;;16.70;81.60;;;;;;4171009;28;20179;-61
2022/09/19 04:02:35;;;;;;;0.00;0.00;;;16.70;81.60;;;;;;4176096;28;20475;-61
2022/09/19 04:05:16;;;;;;;0.00;0.00;;;16.70;81.60;;;;;;4175806;28;20105;-61
2022/09/19 04:07:57;;;;;;;0.00;0.00;;;16.70;81.60;;;;;;4175115;28;20048;-61
2022/09/19 04:10:42;;;;;;;0.00;0.00;;;16.70;81.60;;;;;;4167558;28;20068;-61
2022/09/19 04:13:24;;;;;;;0.00;0.00;;;16.70;81.80;;;;;;4158053;28;20064;-61
2022/09/19 04:16:11;;;;;;;2.30;1.17;;;16.70;81.80;;;;;;4158540;28;20049;-61
2022/09/19 04:18:53;;;;;;;0.00;0.00;;;16.70;81.70;;;;;;4177335;28;20067;-59
2022/09/19 04:21:53;;;;;;;0.00;0.00;;;16.70;81.60;;;;;;4175011;28;20519;-58
2022/09/19 04:24:42;;;;;;;0.00;0.00;;;16.70;81.60;;;;;;4174362;28;20119;-58
2022/09/19 04:27:53;;;;;;;0.00;0.00;;;16.70;81.70;;;;;;4173116;28;20048;-59
2022/09/19 04:30:36;;;;;;;0.00;0.00;;;16.70;81.80;;;;;;4158009;28;20600;-58
2022/09/19 04:33:20;;;;;;;0.00;0.00;;;16.70;82.70;;;;;;4157812;28;20179;-59
2022/09/19 04:36:03;;;;;;;0.00;0.00;;;16.70;81.90;;;;;;4157978;28;20113;-58
2022/09/19 04:38:44;;;;;;;0.08;0.08;;;16.70;82.10;;;;;;4169636;28;20056;-61
2022/09/19 04:41:38;;;;;;;0.32;0.32;;;16.70;82.00;;;;;;4177517;28;20093;-61
2022/09/19 04:44:20;;;;;;;0.20;0.20;;;16.70;82.10;;;;;;4177866;28;20056;-60
2022/09/19 04:47:32;;;;;;;0.00;0.00;;;16.70;82.10;;;;;;4178742;28;20380;-61
2022/09/19 04:50:14;;;;;;;0.00;0.00;;;16.70;82.10;;;;;;4161442;28;20056;-61
2022/09/19 04:53:11;;;;;;;10.15;1.48;;;16.70;82.00;;;;;;4161664;28;20095;-61
2022/09/19 04:55:54;;;;;;;0.00;0.00;;;16.70;82.20;;;;;;4161059;28;20056;-61
2022/09/19 04:58:37;;;;;;;0.00;0.00;;;16.70;82.20;;;;;;4165197;28;20049;-61
2022/09/19 05:01:20;;;;;;;0.00;0.00;;;16.60;82.20;;;;;;4161000;28;20106;-61
2022/09/19 05:04:03;;;;;;;18.70;0.88;;;16.60;82.30;;;;;;4172507;28;20155;-61
2022/09/19 05:06:45;;;;;;;0.00;0.00;;;16.60;82.30;;;;;;4160216;28;20061;-60
2022/09/19 05:09:26;;;;;;;0.20;0.20;;;16.60;82.20;;;;;;4164019;28;20071;-61
2022/09/19 05:12:19;;;;;;;0.00;0.00;;;16.60;82.40;;;;;;4178446;28;20178;-61
2022/09/19 05:15:03;;;;;;;3.30;1.65;;;16.60;83.30;;;;;;4177183;28;20067;-61
2022/09/19 05:17:46;;;;;;;0.00;0.00;;;16.60;82.50;;;;;;4174843;28;20056;-61
2022/09/19 05:20:28;;;;;;;0.00;0.00;;;16.60;82.50;;;;;;4177227;28;20095;-60
2022/09/19 05:23:13;;;;;;;0.00;0.00;;;16.60;82.70;;;;;;4177145;28;20087;-61
2022/09/19 05:25:54;;;;;;;0.00;0.00;;;16.60;82.70;;;;;;4160088;28;20446;-61
2022/09/19 05:28:36;;;;;;;0.13;0.13;;;16.60;82.70;;;;;;4144526;28;20057;-60
2022/09/19 05:31:18;;;;;;;0.00;0.00;;;16.60;82.70;;;;;;4145372;28;20061;-60
2022/09/19 05:34:13;;;;;;;0.00;0.00;;;16.70;82.90;;;;;;4155539;28;20199;-61
2022/09/19 05:36:56;;;;;;;0.10;0.10;;;16.70;82.90;;;;;;4159863;28;20164;-58
2022/09/19 05:39:56;;;;;;;0.10;0.10;;;16.70;83.20;;;;;;4167883;28;20071;-62
2022/09/19 05:42:59;;;;;;;0.00;0.00;;;16.70;83.90;;;;;;4177634;28;20060;-63
2022/09/19 05:45:42;;;;;;;0.20;0.20;;;16.80;83.90;;;;;;4172077;28;20412;-62
2022/09/19 05:48:24;;;;;;;0.77;0.40;;;16.80;83.50;;;;;;4176768;28;20066;-63
2022/09/19 05:51:05;;;;;;;0.20;0.20;;;16.80;83.10;;;;;;4163404;28;20056;-62
2022/09/19 05:53:52;;;;;;;0.00;0.00;;;16.80;82.80;;;;;;4166946;28;20052;-63
2022/09/19 05:56:45;;;;;;;0.00;0.00;;;16.80;82.70;;;;;;4161144;28;20075;-63
2022/09/19 05:59:26;;;;;;;0.00;0.00;;;16.80;83.50;;;;;;4159775;28;20468;-63
2022/09/19 06:02:10;;;;;;;0.00;0.00;;;16.80;82.50;;;;;;4165137;28;20067;-63
2022/09/19 06:05:01;;;;;;;0.00;0.00;;;16.80;82.50;;;;;;4160110;28;20056;-63
2022/09/19 06:07:44;;;;;;;0.00;0.00;;;16.70;82.40;;;;;;4159920;28;20160;-63
2022/09/19 06:10:28;;;;;;;0.17;0.17;;;16.70;82.20;;;;;;4170667;28;20052;-63
2022/09/19 06:13:12;;;;;;;0.00;0.00;;;16.70;82.00;;;;;;4177347;28;20051;-63
2022/09/19 06:15:53;;;;;;;0.00;0.00;;;16.70;81.90;;;;;;4176443;28;20087;-63
2022/09/19 06:18:57;;;;;;;0.00;0.00;;;16.70;82.00;;;;;;4177096;28;20056;-63
2022/09/19 06:21:38;;;;;;;1.17;1.17;;;16.70;82.00;;;;;;4175510;28;20138;-62
2022/09/19 06:24:19;;;;;;;0.73;0.73;;;16.70;82.00;;;;;;4176001;28;20083;-63
2022/09/19 06:27:02;;;;;;;0.00;0.00;;;16.70;82.20;;;;;;4191357;28;20044;-63
2022/09/19 06:29:44;;;;;;;0.00;0.00;;;16.70;82.30;;;;;;4190793;28;20125;-62
2022/09/19 06:32:43;;;;;;;0.00;0.00;;;16.70;82.40;;;;;;4190719;28;20136;-63
2022/09/19 06:35:31;;;;;;;16.92;1.17;;;16.70;82.50;;;;;;4179428;28;20169;-63
2022/09/19 06:38:13;;;;;;;0.00;0.00;;;16.70;82.50;;;;;;4179869;28;20056;-63
2022/09/19 06:40:54;;;;;;;0.00;0.00;;;16.70;82.50;;;;;;4190804;28;20060;-63
2022/09/19 06:43:55;;;;;;;0.05;0.05;;;16.70;82.60;;;;;;4190094;28;20552;-63
2022/09/19 06:47:01;;;;;;;0.13;0.13;;;16.70;82.40;;;;;;4180749;28;20111;-63
2022/09/19 06:50:01;;;;;;;0.00;0.00;;;16.70;82.40;;;;;;4179285;28;20110;-63
2022/09/19 06:52:47;;;;;;;0.38;0.38;;;16.70;82.40;;;;;;4178978;28;20414;-63
2022/09/19 06:55:30;;;;;;;0.00;0.00;;;16.70;82.50;;;;;;4177781;28;20047;-63
2022/09/19 06:58:15;;;;;;;0.00;0.00;;;16.70;82.50;;;;;;4173027;28;20094;-63
2022/09/19 07:01:02;;;;;;;0.00;0.00;;;16.70;82.40;;;;;;4174271;28;20110;-60
2022/09/19 07:03:44;;;;;;;0.00;0.00;;;16.70;82.50;;;;;;4175488;28;20052;-60
2022/09/19 07:06:56;;;;;;;0.00;0.00;;;16.70;82.40;;;;;;3998246;29;20053;-60
2022/09/19 07:09:37;;;;;;;0.00;0.00;;;16.70;82.40;;;;;;4004438;29;20052;-60
2022/09/19 07:12:19;;;;;;;0.00;0.00;;;16.70;82.40;;;;;;3966391;29;20124;-60
2022/09/19 07:15:03;;;;;;;0.15;0.15;;;16.70;82.40;;;;;;3963257;29;20545;-60
2022/09/19 07:17:47;;;;;;;0.00;0.00;;;16.70;82.40;;;;;;3969008;29;20363;-60
2022/09/19 07:20:29;;;;;;;0.00;0.00;;;16.60;82.30;;;;;;3978565;29;20073;-60
2022/09/19 07:23:22;;;;;;;0.00;0.00;;;16.60;82.30;;;;;;3978364;29;20184;-63
2022/09/19 07:26:16;;;;;;;0.00;0.00;;;16.70;83.20;;;;;;3994034;29;20081;-63
2022/09/19 07:28:57;;;;;;;0.00;0.00;;;16.70;82.30;;;;;;3980582;29;20073;-63
2022/09/19 07:31:39;;;;;;;0.20;0.20;;;16.60;82.20;;;;;;3978489;29;20066;-61
2022/09/19 07:34:22;;;;;;;;;;;16.70;82.20;;;;;;3994286;29;20068;-63
2022/09/19 07:37:06;;;;;;;0.00;0.00;;;16.70;82.10;;;;;;3980544;29;19935;-63
2022/09/19 07:39:47;;;;;;;0.00;0.00;;;16.70;82.10;;;;;;3978209;29;20594;-60
2022/09/19 07:42:59;;;;;;;0.00;0.00;;;16.70;82.10;;;;;;3968867;29;20098;-63
2022/09/19 07:46:00;;;;;;;0.00;0.00;;;16.70;82.10;;;;;;3987810;29;20190;-63
2022/09/19 07:48:54;;;;;;;0.00;0.00;;;16.70;82.40;;;;;;3972042;29;20272;-63
2022/09/19 07:51:57;;;;;;;0.43;0.43;;;16.70;82.50;;;;;;3978581;29;20533;-60
2022/09/19 07:54:38;;;;;;;0.00;0.00;;;16.80;82.70;;;;;;3978813;29;20517;-61
2022/09/19 07:57:20;;;;;;;0.38;0.38;;;16.80;82.80;;;;;;3981660;29;20076;-61
2022/09/19 08:00:02;;;;;;;0.00;0.00;;;16.90;82.90;;;;;;3979956;29;20057;-61
2022/09/19 08:02:55;;;;;;;0.00;0.00;;;16.90;82.80;;;;;;3967446;29;20533;-62
2022/09/19 08:05:38;;;;;;;0.00;0.00;;;17.00;83.10;;;;;;3977411;29;20631;-61
2022/09/19 08:08:22;;;;;;;0.00;0.00;;;17.00;83.10;;;;;;3979329;29;20081;-64
2022/09/19 08:11:03;;;;;;;0.00;0.00;;;17.10;83.10;;;;;;3993128;29;20073;-60
2022/09/19 08:13:44;;;;;;;0.00;0.00;;;17.10;83.00;;;;;;3968395;29;20566;-60
2022/09/19 08:16:25;;;;;;;0.00;0.00;;;17.20;83.00;;;;;;3993390;29;20069;-59
2022/09/19 08:19:07;;;;;;;;;;;17.20;82.40;;;;;;3993689;29;20095;-60
2022/09/19 08:21:50;;;;;;;0.00;0.00;;;17.30;82.10;;;;;;3993424;29;20337;-60
2022/09/19 08:24:33;;;;;;;0.00;0.00;;;17.30;81.90;;;;;;3992687;29;20061;-60
2022/09/19 08:27:20;;;;;;;0.00;0.00;;;17.30;81.60;;;;;;3978940;29;20199;-60
2022/09/19 08:30:03;;;;;;;0.00;0.00;;;17.30;81.30;;;;;;3993101;29;20485;-60
2022/09/19 08:32:47;;;;;;;0.00;0.00;;;17.40;81.00;;;;;;3991102;29;20072;-59
2022/09/19 08:35:29;;;;;;;0.00;0.00;;;17.40;80.90;;;;;;3996332;29;20057;-60
2022/09/19 08:38:14;;;;;;;0.08;0.08;;;17.40;80.80;;;;;;3996360;29;20187;-63
2022/09/19 08:41:09;;;;;;;0.00;0.00;;;17.40;80.70;;;;;;3988007;29;20069;-59
2022/09/19 08:43:58;;;;;;;1.08;1.08;;;17.50;81.50;;;;;;3987951;29;20065;-62
2022/09/19 08:46:46;;;;;;;15.20;1.73;;;17.50;80.60;;;;;;3995171;29;20417;-61
2022/09/19 08:49:31;;;;;;;0.00;0.00;;;17.50;80.50;;;;;;3989721;29;20078;-61
2022/09/19 08:52:29;;;;;;;0.00;0.00;;;17.50;80.10;;;;;;3987515;29;20402;-60
2022/09/19 08:55:17;;;;;;;0.00;0.00;;;17.50;79.70;;;;;;3998629;29;20053;-60
2022/09/19 08:58:02;;;;;;;0.00;0.00;;;17.60;79.10;;;;;;3984766;29;20071;-58
2022/09/19 09:01:20;;;;;;;7.97;1.75;;;17.50;78.60;;;;;;3975788;29;20533;-61
2022/09/19 09:04:30;;;;;;;0.70;0.70;;;17.60;78.30;;;;;;3998803;29;20065;-62
2022/09/19 09:07:32;;;;;;;0.00;0.00;;;17.60;78.30;;;;;;3999203;29;20485;-63
2022/09/19 09:10:51;;;;;;;0.00;0.00;;;17.60;77.70;;;;;;4000703;29;20060;-65
2022/09/19 09:13:46;;;;;;;0.00;0.00;;;17.60;77.80;;;;;;3991971;29;20057;-66
2022/09/19 09:16:54;;;;;;;0.00;0.00;;;17.60;77.90;;;;;;3980843;29;20089;-64
2022/09/19 09:19:59;;;;;;;0.00;0.00;;;17.60;77.20;;;;;;3994938;29;20061;-64
2022/09/19 09:22:44;;;;;;;1.85;0.70;;;17.60;77.50;;;;;;3984517;29;20504;-64
2022/09/19 09:26:00;;;;;;;0.00;0.00;;;17.60;77.40;;;;;;3988465;29;20068;-65
2022/09/19 09:28:47;;;;;;;0.25;0.25;;;17.60;77.10;;;;;;3986759;29;20137;-64
2022/09/19 09:31:41;;;;;;;0.00;0.00;;;17.70;76.80;;;;;;3982953;29;20058;-65
2022/09/19 09:34:41;;;;;;;0.00;0.00;;;17.70;76.50;;;;;;3985951;29;20053;-67
2022/09/19 09:37:30;;;;;;;0.00;0.00;;;17.80;76.90;;;;;;3986381;29;20077;-65
2022/09/19 09:41:44;;;;;;;0.00;0.00;;;17.70;76.90;;;;;;3982960;29;20054;-61
2022/09/19 09:43:52;;;;;;;0.00;0.00;;;17.80;76.90;;;;;;3967523;29;20054;-61
2022/09/19 09:46:52;;;;;;;0.00;0.00;;;17.80;76.60;;;;;;3967348;29;20062;-64
2022/09/19 09:49:36;;;;;;;0.00;0.00;;;17.80;76.40;;;;;;3990530;29;20075;-63
2022/09/19 09:52:33;;;;;;;0.00;0.00;;;17.80;75.90;;;;;;3975340;29;20084;-64
2022/09/19 09:58:44;;;;;;;0.00;0.00;;;17.70;76.00;;;;;;3973169;29;20062;-62
2022/09/19 10:04:39;;;;;;;0.32;0.32;;;17.70;76.20;;;;;;3970492;29;20621;-64
2022/09/19 10:07:39;;;;;;;0.00;0.00;;;17.70;76.30;;;;;;3983500;29;20164;-62
2022/09/19 10:10:23;;;;;;;0.00;0.00;;;17.70;77.30;;;;;;3978846;29;20093;-63
2022/09/19 10:13:15;;;;;;;0.00;0.00;;;17.70;76.60;;;;;;3972879;29;20072;-68
2022/09/19 10:16:02;;;;;;;0.00;0.00;;;17.60;76.70;;;;;;3981090;29;20085;-65
2022/09/19 10:18:52;;;;;;;0.00;0.00;;;17.60;76.80;;;;;;3972432;29;20069;-66
2022/09/19 10:21:38;;;;;;;0.00;0.00;;;17.60;77.00;;;;;;3972006;29;20058;-66
2022/09/19 10:24:41;;;;;;;0.00;0.00;;;17.60;77.10;;;;;;3970506;29;20155;-64
2022/09/19 10:27:28;;;;;;;0.10;0.10;;;17.60;77.00;;;;;;3970655;29;20053;-61
2022/09/19 10:30:15;;;;;;;0.00;0.00;;;17.60;76.80;;;;;;3981998;29;20053;-62
2022/09/19 10:32:58;;;;;;;0.00;0.00;;;17.60;77.00;;;;;;3995897;29;20187;-63
2022/09/19 10:36:08;;;;;;;0.35;0.35;;;17.60;76.90;;;;;;3972649;29;20562;-66
2022/09/19 10:38:58;;;;;;;0.00;0.00;;;17.60;76.20;;;;;;3995648;29;20115;-61
2022/09/19 10:41:44;;;;;;;0.00;0.00;;;17.70;76.60;;;;;;4000588;29;20061;-63
2022/09/19 10:44:27;;;;;;;0.00;0.00;;;17.70;76.60;;;;;;4000798;29;20150;-65
2022/09/19 10:47:13;;;;;;;0.00;0.00;;;17.70;76.50;;;;;;3981099;29;20062;-64
2022/09/19 10:50:05;;;;;;;0.00;0.00;;;17.70;76.60;;;;;;3970825;29;20061;-64
2022/09/19 10:53:04;;;;;;;0.00;0.00;;;17.70;76.70;;;;;;3965983;29;20203;-64
2022/09/19 10:55:48;;;;;;;0.00;0.00;;;17.70;76.80;;;;;;3969328;29;20700;-64
2022/09/19 10:58:35;;;;;;;0.00;0.00;;;17.70;76.60;;;;;;3967205;29;20057;-63
2022/09/19 11:01:25;;;;;;;0.00;0.00;;;17.60;76.70;;;;;;3978423;29;20057;-62
2022/09/19 11:04:22;;;;;;;0.00;0.00;;;17.60;76.90;;;;;;3981481;29;20199;-63
2022/09/19 11:07:16;;;;;;;0.00;0.00;;;17.60;77.00;;;;;;3980238;29;20591;-64
2022/09/19 11:10:04;;;;;;;0.47;0.47;;;17.60;77.00;;;;;;3989301;29;20528;-62
2022/09/19 11:12:46;;;;;;;0.00;0.00;;;17.60;76.80;;;;;;4000368;29;20057;-62
2022/09/19 11:15:28;;;;;;;0.00;0.00;;;17.60;76.50;;;;;;3980110;29;20062;-63
2022/09/19 11:18:19;;;;;;;0.00;0.00;;;17.60;76.20;;;;;;3956013;29;20054;-63
2022/09/19 11:21:16;;;;;;;0.52;0.52;;;17.60;76.40;;;;;;3998715;29;20065;-64
2022/09/19 11:24:17;;;;;;;0.00;0.00;;;17.60;76.40;;;;;;3999899;29;20469;-64
2022/09/19 11:27:17;;;;;;;0.20;0.20;;;17.60;76.50;;;;;;3999682;29;20066;-64
2022/09/19 11:30:11;;;;;;;0.00;0.00;;;17.70;75.80;;;;;;3992541;29;20053;-64
2022/09/19 11:33:21;;;;;;;0.00;0.00;;;17.70;75.10;;;;;;3979763;29;20065;-64
2022/09/19 11:36:53;;;;;;;0.35;0.35;;;17.70;74.30;;;;;;3970691;29;20070;-63
2022/09/19 11:39:53;;;;;;;0.00;0.00;;;17.80;73.50;;;;;;3978527;29;20146;-64
2022/09/19 11:42:47;;;;;;;0.00;0.00;;;17.80;72.20;;;;;;3979995;29;20073;-65
2022/09/19 11:45:35;;;;;;;2.30;0.75;;;17.80;72.00;;;;;;3980008;29;20131;-64
2022/09/19 11:48:35;;;;;;;0.15;0.15;;;17.80;72.70;;;;;;3994743;29;20126;-64
2022/09/19 11:51:26;;;;;;;7.32;2.25;;;17.90;73.00;;;;;;3998891;29;20057;-63
2022/09/19 11:54:39;;;;;;;0.00;0.00;;;17.90;72.50;;;;;;3979418;29;20414;-64
2022/09/19 11:57:37;;;;;;;0.00;0.00;;;17.90;71.70;;;;;;3979640;29;20049;-64
2022/09/19 12:00:23;;;;;;;0.00;0.00;;;18.00;71.00;;;;;;3974128;29;20099;-63
2022/09/19 12:03:25;;;;;;;0.00;0.00;;;18.00;71.10;;;;;;3972507;29;20167;-63
2022/09/19 12:06:51;;;;;;;0.00;0.00;;;18.00;69.20;;;;;;3965208;29;20062;-64
2022/09/19 12:09:36;;;;;;;0.00;0.00;;;18.00;70.40;;;;;;3964436;29;20091;-63
2022/09/19 12:12:21;;;;;;;0.00;0.00;;;18.00;70.60;;;;;;3960088;29;20061;-63
2022/09/19 12:15:29;;;;;;;0.00;0.00;;;18.00;71.10;;;;;;3954924;29;20567;-65
2022/09/19 12:18:16;;;;;;;0.00;0.00;;;18.00;71.30;;;;;;3979647;29;20057;-64
2022/09/19 12:21:03;;;;;;;0.00;0.00;;;18.00;71.20;;;;;;3969003;29;20196;-65
2022/09/19 12:26:56;;;;;;;0.00;0.00;;;18.00;71.10;;;;;;3969103;29;20469;-62
2022/09/19 12:29:48;;;;;;;0.00;0.00;;;18.10;71.10;;;;;;3981547;29;20057;-63
2022/09/19 12:32:38;;;;;;;0.00;0.00;;;18.00;71.00;;;;;;3983488;29;20054;-67
2022/09/19 12:35:25;;;;;;;0.00;0.00;;;18.00;71.00;;;;;;3994691;29;20519;-66
2022/09/19 12:38:20;;;;;;;0.00;0.00;;;18.10;70.60;;;;;;3994264;29;20048;-69
2022/09/19 12:41:07;;;;;;;0.30;0.30;;;18.00;69.10;;;;;;3984900;29;20066;-63
2022/09/19 12:43:55;;;;;;;0.00;0.00;;;18.00;69.20;;;;;;3994351;29;20065;-65
2022/09/19 12:46:45;;;;;;;0.00;0.00;;;18.00;68.10;;;;;;3964561;29;20729;-64
2022/09/19 12:49:36;;;;;;;0.00;0.00;;;18.10;68.90;;;;;;3966585;29;20057;-66
2022/09/19 12:52:23;;;;;;;0.00;0.00;;;18.10;70.00;;;;;;3970734;29;20054;-64
2022/09/19 12:55:15;;;;;;;0.22;0.22;;;18.10;69.30;;;;;;3978220;29;20505;-64
2022/09/19 12:58:00;;;;;;;0.00;0.00;;;18.10;69.00;;;;;;3984965;29;20500;-64
2022/09/19 13:00:44;;;;;;;0.65;0.65;;;18.10;67.40;;;;;;3986745;29;20502;-66
2022/09/19 13:03:32;;;;;;;0.13;0.13;;;18.20;66.90;;;;;;3972626;29;20069;-66
2022/09/19 13:06:18;;;;;;;0.00;0.00;;;18.20;66.20;;;;;;3980411;29;20081;-65
2022/09/19 13:09:04;;;;;;;0.35;0.30;;;18.20;67.20;;;;;;3987607;29;20057;-65
2022/09/19 13:11:52;;;;;;;0.00;0.00;;;18.20;67.00;;;;;;3997735;29;20591;-66
2022/09/19 13:14:43;;;;;;;0.00;0.00;;;18.20;67.50;;;;;;3980445;29;20170;-65
2022/09/19 13:23:32;;;;;;;0.00;0.00;;;18.30;68.80;;;;;;3986016;29;20126;-66
2022/09/19 13:26:34;;;;;;;0.00;0.00;;;18.30;69.60;;;;;;3972593;29;20061;-65
2022/09/19 13:29:45;;;;;;;0.13;0.13;;;18.30;70.40;;;;;;3972435;29;20399;-66
2022/09/19 13:32:34;;;;;;;0.00;0.00;;;18.30;72.40;;;;;;3985148;29;20497;-68
2022/09/19 13:35:19;;;;;;;0.00;0.00;;;18.20;72.00;;;;;;3971310;29;20211;-64
2022/09/19 13:38:17;;;;;;;0.00;0.00;;;18.20;72.50;;;;;;3971045;29;20516;-63
2022/09/19 13:41:03;;;;;;;0.03;0.03;;;18.20;72.80;;;;;;3981654;29;20061;-61
2022/09/19 13:43:56;;;;;;;0.00;0.00;;;18.20;72.70;;;;;;3970150;29;20516;-60
2022/09/19 13:46:46;;;;;;;0.00;0.00;;;18.20;72.80;;;;;;3971897;29;20065;-64
2022/09/19 13:49:33;;;;;;;0.00;0.00;;;18.30;72.10;;;;;;3981458;29;20065;-61
2022/09/19 13:52:21;;;;;;;0.00;0.00;;;18.20;72.50;;;;;;4002549;29;20049;-62
2022/09/19 13:55:17;;;;;;;0.00;0.00;;;18.30;72.90;;;;;;3992073;29;20054;-62
2022/09/19 13:58:17;;;;;;;0.00;0.00;;;18.30;73.10;;;;;;3976413;29;20567;-63
2022/09/19 14:01:23;;;;;;;0.00;0.00;;;18.30;73.30;;;;;;3959321;29;20055;-63
2022/09/19 14:07:02;;;;;;;0.00;0.00;;;18.30;73.70;;;;;;3970821;29;20582;-66
2022/09/19 14:10:06;;;;;;;0.00;0.00;;;18.30;73.70;;;;;;3986694;29;20106;-64
2022/09/19 14:13:01;;;;;;;0.52;0.52;;;18.30;73.70;;;;;;3986283;29;20054;-64
2022/09/19 14:16:05;;;;;;;0.00;0.00;;;18.30;73.70;;;;;;3986776;29;20772;-66
2022/09/19 14:18:56;;;;;;;0.00;0.00;;;18.30;73.60;;;;;;3971740;29;20057;-65
2022/09/19 14:21:58;;;;;;;0.00;0.00;;;18.20;73.60;;;;;;3972044;29;20111;-65
2022/09/19 14:24:50;;;;;;;0.03;0.03;;;18.30;73.70;;;;;;3971309;29;20142;-63
2022/09/19 14:28:01;;;;;;;0.00;0.00;;;18.20;73.70;;;;;;3977852;29;20066;-66
2022/09/19 14:30:57;;;;;;;1.70;0.63;;;18.20;73.80;;;;;;3970275;29;20115;-64
2022/09/19 14:34:16;;;;;;;0.00;0.00;;;18.30;73.90;;;;;;3986689;29;20069;-62
2022/09/19 14:37:22;;;;;;;0.00;0.00;;;18.20;73.90;;;;;;3971584;29;20623;-64
2022/09/19 14:40:26;;;;;;;0.00;0.00;;;18.20;74.00;;;;;;3971040;29;20505;-65
2022/09/19 14:43:44;;;;;;;0.65;0.65;;;18.30;74.20;;;;;;3974506;29;20180;-63
2022/09/19 14:46:28;;;;;;;0.00;0.00;;;18.30;74.50;;;;;;3980614;29;20192;-64
2022/09/19 14:49:18;;;;;;;0.13;0.13;;;18.30;74.70;;;;;;3984016;29;20072;-64
2022/09/19 14:52:03;;;;;;;0.00;0.00;;;18.30;73.80;;;;;;3970043;29;20222;-65
2022/09/19 14:54:52;;;;;;;0.00;0.00;;;18.30;73.80;;;;;;3957348;29;20054;-65
2022/09/19 14:57:33;;;;;;;0.00;0.00;;;18.30;75.10;;;;;;3971489;29;20584;-63
2022/09/19 15:00:22;;;;;;;0.20;0.20;;;18.40;74.40;;;;;;3971120;29;20072;-66
2022/09/19 15:03:11;;;;;;;0.00;0.00;;;18.40;73.90;;;;;;3994504;29;20195;-67
2022/09/19 15:05:52;;;;;;;0.00;0.00;;;18.40;73.60;;;;;;3985267;29;20395;-66
2022/09/19 15:08:33;;;;;;;;;;;18.40;73.50;;;;;;4001593;29;20105;-66
2022/09/19 15:11:19;;;;;;;0.00;0.00;;;18.40;72.80;;;;;;4001068;29;19939;-67